createdAt,value
2017-06-08T00:00:19.236Z,12.10
2017-06-08T00:02:46.823Z,12.10
2017-06-08T00:05:14.383Z,12.10
2017-06-08T00:07:41.949Z,12.10
2017-06-08T00:10:09.506Z,12.20
2017-06-08T00:12:37.048Z,12.20
2017-06-08T00:15:04.611Z,12.10
2017-06-08T00:17:32.188Z,12.10
2017-06-08T00:19:59.843Z,12.00
2017-06-08T00:22:27.380Z,12.10
2017-06-08T00:24:54.966Z,12.10
2017-06-08T00:30:16.825Z,12.20
2017-06-08T00:32:44.366Z,12.20
2017-06-08T00:35:11.964Z,12.30
2017-06-08T00:37:39.503Z,12.20
2017-06-08T00:40:07.070Z,12.30
2017-06-08T00:42:34.634Z,12.30
2017-06-08T00:45:02.183Z,12.40
2017-06-08T00:47:29.726Z,12.50
2017-06-08T00:49:57.307Z,12.50
2017-06-08T00:52:25.001Z,12.60
2017-06-08T00:54:53.356Z,12.60
2017-06-08T00:57:20.954Z,12.60
2017-06-08T01:02:42.242Z,12.60
2017-06-08T01:05:09.834Z,12.60
2017-06-08T01:07:37.418Z,12.60
2017-06-08T01:10:05.770Z,12.60
2017-06-08T01:12:33.317Z,12.60
2017-06-08T01:15:00.892Z,12.60
2017-06-08T01:17:28.481Z,12.50
2017-06-08T01:19:56.811Z,12.50
2017-06-08T01:22:24.371Z,12.50
2017-06-08T01:24:51.943Z,12.50
2017-06-08T01:27:19.591Z,12.50
2017-06-08T01:29:47.298Z,12.50
2017-06-08T01:32:14.922Z,12.50
2017-06-08T01:34:42.475Z,12.50
2017-06-08T01:37:10.034Z,12.50
2017-06-08T01:39:37.570Z,12.50
2017-06-08T01:42:05.171Z,12.50
2017-06-08T01:44:32.723Z,12.50
2017-06-08T01:47:00.391Z,12.60
2017-06-08T01:49:27.922Z,12.50
2017-06-08T01:51:55.510Z,12.50
2017-06-08T01:54:23.070Z,12.40
2017-06-08T01:56:50.622Z,12.50
2017-06-08T01:59:28.737Z,12.50
2017-06-08T02:04:50.150Z,12.40
2017-06-08T02:07:17.738Z,12.30
2017-06-08T02:09:45.315Z,12.30
2017-06-08T02:12:12.858Z,12.30
2017-06-08T02:14:40.446Z,12.30
2017-06-08T02:17:07.978Z,12.30
2017-06-08T02:19:35.666Z,12.20
2017-06-08T02:22:03.306Z,12.20
2017-06-08T02:24:30.855Z,12.30
2017-06-08T02:26:58.406Z,12.20
2017-06-08T02:29:25.938Z,12.30
2017-06-08T02:31:54.370Z,12.20
2017-06-08T02:34:21.939Z,12.10
2017-06-08T02:36:49.598Z,12.10
2017-06-08T02:39:17.167Z,12.10
2017-06-08T02:41:44.810Z,12.10
2017-06-08T02:44:12.355Z,12.10
2017-06-08T02:46:40.043Z,12.10
2017-06-08T02:49:07.603Z,12.10
2017-06-08T02:51:35.165Z,12.10
2017-06-08T02:54:02.726Z,12.00
2017-06-08T02:56:30.260Z,12.20
2017-06-08T02:58:57.847Z,12.20
2017-06-08T03:01:25.436Z,12.20
2017-06-08T03:03:53.884Z,12.20
2017-06-08T03:06:21.451Z,12.20
2017-06-08T03:08:49.002Z,12.30
2017-06-08T03:11:16.569Z,12.20
2017-06-08T03:13:44.131Z,12.20
2017-06-08T03:16:11.672Z,12.20
2017-06-08T03:18:39.250Z,12.20
2017-06-08T03:21:06.810Z,12.30
2017-06-08T03:23:34.386Z,12.30
2017-06-08T03:26:02.047Z,12.20
2017-06-08T03:28:29.590Z,12.20
2017-06-08T03:30:57.128Z,12.30
2017-06-08T03:33:24.695Z,12.30
2017-06-08T03:35:52.239Z,12.40
2017-06-08T03:38:19.777Z,12.30
2017-06-08T03:40:47.395Z,12.30
2017-06-08T03:43:14.966Z,12.30
2017-06-08T03:45:42.499Z,12.20
2017-06-08T03:48:10.081Z,12.20
2017-06-08T03:50:37.647Z,12.20
2017-06-08T03:53:05.186Z,12.20
2017-06-08T03:55:32.755Z,12.30
2017-06-08T03:58:00.302Z,12.30
2017-06-08T04:00:27.859Z,12.30
2017-06-08T04:02:55.422Z,12.30
2017-06-08T04:05:22.950Z,12.40
2017-06-08T04:07:51.290Z,12.40
2017-06-08T04:10:18.849Z,12.40
2017-06-08T04:12:46.378Z,12.50
2017-06-08T04:15:13.970Z,12.60
2017-06-08T04:17:41.578Z,12.50
2017-06-08T04:20:09.919Z,12.60
2017-06-08T04:22:37.466Z,12.60
2017-06-08T04:25:04.994Z,12.70
2017-06-08T04:27:32.531Z,12.70
2017-06-08T04:30:00.155Z,12.70
2017-06-08T04:32:27.721Z,12.80
2017-06-08T04:34:55.255Z,12.80
2017-06-08T04:37:22.830Z,12.90
2017-06-08T04:39:50.430Z,12.90
2017-06-08T04:42:18.058Z,13.00
2017-06-08T04:44:45.619Z,13.20
2017-06-08T04:47:13.166Z,13.30
2017-06-08T04:49:40.735Z,13.30
2017-06-08T04:52:08.266Z,13.30
2017-06-08T04:54:35.811Z,13.40
2017-06-08T04:57:04.146Z,13.50
2017-06-08T04:59:31.829Z,13.50
2017-06-08T05:01:59.365Z,13.60
2017-06-08T05:04:26.945Z,13.50
2017-06-08T05:06:54.589Z,13.50
2017-06-08T05:09:22.170Z,13.60
2017-06-08T05:11:49.724Z,13.60
2017-06-08T05:14:17.379Z,13.60
2017-06-08T05:16:44.947Z,13.60
2017-06-08T05:19:12.482Z,13.60
2017-06-08T05:21:40.053Z,13.60
2017-06-08T05:24:07.606Z,13.60
2017-06-08T05:26:35.283Z,13.50
2017-06-08T05:29:02.838Z,13.50
2017-06-08T05:31:30.437Z,13.40
2017-06-08T05:33:57.987Z,13.40
2017-06-08T05:36:25.531Z,13.50
2017-06-08T05:38:53.079Z,13.50
2017-06-08T05:41:20.635Z,13.50
2017-06-08T05:43:48.309Z,13.60
2017-06-08T05:46:15.848Z,13.60
2017-06-08T05:48:43.426Z,13.60
2017-06-08T05:51:10.949Z,13.50
2017-06-08T05:53:38.522Z,13.30
2017-06-08T05:56:06.111Z,13.30
2017-06-08T05:58:33.680Z,13.30
2017-06-08T06:01:01.216Z,13.30
2017-06-08T06:03:28.758Z,13.20
2017-06-08T06:05:56.447Z,13.20
2017-06-08T06:08:23.977Z,13.20
2017-06-08T06:10:52.434Z,13.20
2017-06-08T06:13:20.062Z,13.30
2017-06-08T06:15:47.734Z,13.40
2017-06-08T06:18:15.287Z,13.50
2017-06-08T06:20:42.858Z,13.50
2017-06-08T06:23:10.407Z,13.50
2017-06-08T06:25:37.970Z,13.60
2017-06-08T06:28:05.522Z,13.50
2017-06-08T06:30:33.090Z,13.40
2017-06-08T06:33:00.627Z,13.50
2017-06-08T06:35:28.215Z,13.40
2017-06-08T06:37:55.807Z,13.40
2017-06-08T06:40:23.449Z,13.40
2017-06-08T06:42:51.121Z,13.40
2017-06-08T06:45:18.657Z,13.40
2017-06-08T06:47:46.243Z,13.40
2017-06-08T06:50:13.787Z,13.40
2017-06-08T06:52:41.323Z,13.30
2017-06-08T06:55:08.863Z,13.30
2017-06-08T06:57:36.466Z,13.20
2017-06-08T07:00:04.128Z,13.20
2017-06-08T07:02:31.671Z,13.00
2017-06-08T07:04:59.247Z,12.90
2017-06-08T07:07:26.790Z,12.90
2017-06-08T07:09:54.367Z,12.80
2017-06-08T07:12:21.902Z,12.80
2017-06-08T07:14:49.591Z,12.70
2017-06-08T07:17:17.165Z,12.50
2017-06-08T07:19:44.708Z,12.60
2017-06-08T07:22:26.420Z,12.50
2017-06-08T07:24:53.958Z,12.40
2017-06-08T07:27:21.631Z,12.40
2017-06-08T07:29:49.190Z,12.30
2017-06-08T07:32:16.766Z,12.30
2017-06-08T07:34:44.455Z,12.40
2017-06-08T07:37:12.798Z,12.50
2017-06-08T07:39:40.329Z,12.50
2017-06-08T07:42:07.863Z,12.60
2017-06-08T07:44:36.194Z,12.60
2017-06-08T07:47:03.738Z,12.60
2017-06-08T07:49:31.315Z,12.60
2017-06-08T07:51:58.847Z,12.80
2017-06-08T07:54:26.414Z,13.00
2017-06-08T07:56:53.957Z,13.00
2017-06-08T07:59:21.522Z,12.90
2017-06-08T08:02:00.884Z,12.90
2017-06-08T08:04:28.439Z,12.80
2017-06-08T08:06:55.966Z,12.90
2017-06-08T08:09:24.398Z,13.00
2017-06-08T08:11:51.961Z,13.00
2017-06-08T08:14:19.511Z,13.20
2017-06-08T08:16:47.079Z,13.10
2017-06-08T08:19:14.620Z,13.00
2017-06-08T08:21:42.204Z,13.10
2017-06-08T08:24:09.758Z,13.50
2017-06-08T08:26:37.320Z,13.50
2017-06-08T08:29:04.878Z,13.70
2017-06-08T08:31:32.445Z,13.60
2017-06-08T08:34:00.004Z,13.80
2017-06-08T08:36:27.575Z,13.80
2017-06-08T08:38:55.122Z,14.10
2017-06-08T08:41:22.679Z,14.20
2017-06-08T08:43:50.216Z,14.60
2017-06-08T08:46:17.750Z,14.70
2017-06-08T08:48:45.367Z,14.60
2017-06-08T08:51:12.922Z,14.70
2017-06-08T08:53:40.486Z,14.50
2017-06-08T08:56:08.019Z,14.60
2017-06-08T08:58:35.591Z,14.50
2017-06-08T09:01:03.170Z,14.50
2017-06-08T09:03:30.734Z,14.60
2017-06-08T09:05:58.306Z,14.60
2017-06-08T09:08:25.869Z,14.80
2017-06-08T09:10:53.419Z,14.70
2017-06-08T09:13:20.967Z,14.60
2017-06-08T09:15:48.510Z,14.40
2017-06-08T09:18:16.106Z,14.50
2017-06-08T09:20:43.696Z,14.80
2017-06-08T09:23:11.318Z,14.90
2017-06-08T09:25:38.978Z,15.10
2017-06-08T09:28:06.511Z,15.20
2017-06-08T09:30:34.055Z,15.20
2017-06-08T09:33:02.397Z,15.30
2017-06-08T09:35:30.044Z,15.20
2017-06-08T09:37:57.590Z,15.40
2017-06-08T09:40:25.165Z,15.30
2017-06-08T09:42:52.734Z,15.30
2017-06-08T09:45:20.290Z,15.40
2017-06-08T09:47:47.830Z,15.40
2017-06-08T09:50:15.416Z,15.20
2017-06-08T09:52:43.075Z,15.30
2017-06-08T09:55:10.638Z,15.30
2017-06-08T09:57:38.192Z,15.30
2017-06-08T10:00:05.758Z,15.30
2017-06-08T10:02:33.317Z,15.40
2017-06-08T10:05:00.863Z,15.60
2017-06-08T10:07:28.403Z,15.70
2017-06-08T10:09:55.998Z,15.80
2017-06-08T10:12:23.557Z,15.80
2017-06-08T10:14:51.114Z,16.00
2017-06-08T10:17:18.651Z,16.00
2017-06-08T10:19:46.242Z,16.10
2017-06-08T10:22:13.779Z,16.00
2017-06-08T10:24:41.330Z,15.80
2017-06-08T10:27:08.863Z,16.00
2017-06-08T10:29:37.207Z,16.00
2017-06-08T10:32:04.754Z,16.00
2017-06-08T10:34:32.291Z,15.90
2017-06-08T10:36:59.883Z,16.00
2017-06-08T10:39:27.446Z,16.30
2017-06-08T10:41:56.756Z,16.70
2017-06-08T10:44:24.299Z,17.20
2017-06-08T10:46:51.861Z,17.10
2017-06-08T10:49:19.423Z,17.20
2017-06-08T10:51:46.984Z,17.20
2017-06-08T10:54:14.547Z,17.40
2017-06-08T10:56:42.083Z,17.40
2017-06-08T10:59:09.622Z,17.50
2017-06-08T11:01:37.919Z,17.50
2017-06-08T11:04:05.497Z,17.50
2017-06-08T11:06:33.043Z,17.40
2017-06-08T11:09:00.634Z,17.50
2017-06-08T11:11:28.194Z,17.70
2017-06-08T11:13:55.741Z,17.90
2017-06-08T11:16:23.307Z,17.80
2017-06-08T11:18:50.974Z,18.00
2017-06-08T11:21:18.523Z,18.10
2017-06-08T11:23:46.099Z,17.60
2017-06-08T11:26:13.626Z,17.80
2017-06-08T11:28:41.220Z,18.00
2017-06-08T11:31:08.794Z,18.40
2017-06-08T11:33:36.343Z,18.60
2017-06-08T11:36:03.876Z,18.80
2017-06-08T11:38:31.466Z,18.80
2017-06-08T11:40:59.018Z,18.70
2017-06-08T11:43:26.548Z,18.70
2017-06-08T11:45:54.140Z,18.60
2017-06-08T11:48:21.679Z,18.50
2017-06-08T11:50:49.266Z,18.50
2017-06-08T11:53:16.967Z,18.60
2017-06-08T11:55:44.509Z,18.70
2017-06-08T11:58:12.146Z,19.10
2017-06-08T12:00:39.695Z,19.10
2017-06-08T12:03:07.279Z,18.90
2017-06-08T12:05:34.841Z,18.60
2017-06-08T12:08:02.392Z,18.20
2017-06-08T12:10:29.963Z,18.60
2017-06-08T12:12:57.522Z,19.00
2017-06-08T12:15:25.068Z,19.20
2017-06-08T12:17:52.606Z,19.40
2017-06-08T12:20:20.186Z,19.60
2017-06-08T12:22:47.731Z,19.50
2017-06-08T12:25:15.290Z,19.80
2017-06-08T12:27:42.830Z,20.20
2017-06-08T12:30:11.262Z,21.50
2017-06-08T12:32:38.827Z,21.50
2017-06-08T12:35:06.358Z,21.50
2017-06-08T12:37:33.938Z,21.10
2017-06-08T12:40:01.474Z,21.40
2017-06-08T12:42:29.067Z,21.70
2017-06-08T12:44:56.598Z,22.20
2017-06-08T12:47:24.150Z,21.80
2017-06-08T12:49:51.742Z,21.50
2017-06-08T12:52:19.415Z,21.90
2017-06-08T12:54:46.974Z,21.90
2017-06-08T12:57:14.526Z,21.30
2017-06-08T12:59:42.086Z,21.10
2017-06-08T13:02:09.621Z,21.40
2017-06-08T13:04:37.167Z,21.40
2017-06-08T13:07:05.463Z,21.90
2017-06-08T13:09:33.058Z,21.90
2017-06-08T13:12:00.591Z,21.40
2017-06-08T13:14:28.154Z,20.80
2017-06-08T13:16:55.742Z,20.90
2017-06-08T13:19:23.302Z,20.90
2017-06-08T13:21:50.835Z,21.00
2017-06-08T13:24:18.420Z,21.50
2017-06-08T13:26:45.951Z,21.80
2017-06-08T13:29:13.478Z,22.30
2017-06-08T13:31:41.039Z,22.00
2017-06-08T13:34:08.655Z,22.40
2017-06-08T13:36:36.227Z,22.50
2017-06-08T13:39:03.764Z,22.50
2017-06-08T13:41:31.342Z,22.30
2017-06-08T13:43:58.906Z,22.20
2017-06-08T13:46:26.610Z,22.00
2017-06-08T13:48:54.141Z,21.50
2017-06-08T13:51:21.787Z,21.90
2017-06-08T13:53:49.336Z,21.90
2017-06-08T13:56:16.907Z,22.10
2017-06-08T13:58:44.478Z,21.90
2017-06-08T14:01:12.031Z,21.30
2017-06-08T14:03:39.798Z,21.10
2017-06-08T14:06:07.363Z,21.20
2017-06-08T14:08:34.935Z,21.10
2017-06-08T14:11:02.498Z,21.00
2017-06-08T14:13:30.152Z,21.20
2017-06-08T14:15:57.709Z,21.10
2017-06-08T14:18:25.358Z,21.00
2017-06-08T14:20:52.930Z,21.20
2017-06-08T14:23:20.462Z,21.30
2017-06-08T14:25:47.998Z,21.20
2017-06-08T14:28:16.334Z,21.30
2017-06-08T14:30:43.898Z,21.20
2017-06-08T14:33:11.457Z,20.90
2017-06-08T14:35:39.118Z,21.20
2017-06-08T14:38:06.678Z,21.40
2017-06-08T14:40:34.342Z,21.50
2017-06-08T14:43:01.907Z,21.50
2017-06-08T14:45:29.555Z,21.50
2017-06-08T14:47:57.122Z,21.60
2017-06-08T14:50:24.679Z,21.50
2017-06-08T14:52:52.213Z,21.40
2017-06-08T14:55:19.806Z,21.50
2017-06-08T14:57:47.462Z,21.60
2017-06-08T15:00:15.026Z,21.70
2017-06-08T15:02:42.578Z,21.70
2017-06-08T15:05:10.106Z,21.60
2017-06-08T15:07:38.486Z,21.70
2017-06-08T15:10:06.080Z,21.70
2017-06-08T15:12:33.651Z,21.80
2017-06-08T15:15:01.209Z,21.70
2017-06-08T15:17:28.771Z,21.70
2017-06-08T15:19:56.364Z,21.70
2017-06-08T15:22:23.895Z,21.80
2017-06-08T15:24:51.459Z,21.90
2017-06-08T15:27:19.020Z,22.00
2017-06-08T15:29:46.674Z,21.80
2017-06-08T15:32:14.242Z,21.70
2017-06-08T15:34:41.798Z,21.80
2017-06-08T15:37:09.352Z,22.20
2017-06-08T15:39:36.898Z,22.40
2017-06-08T15:42:04.439Z,22.40
2017-06-08T15:44:33.963Z,22.30
2017-06-08T15:47:01.530Z,22.30
2017-06-08T15:49:29.113Z,22.40
2017-06-08T15:51:56.675Z,22.10
2017-06-08T15:54:24.216Z,22.30
2017-06-08T15:56:51.747Z,22.00
2017-06-08T15:59:20.042Z,22.30
2017-06-08T16:01:47.566Z,22.20
2017-06-08T16:04:15.110Z,22.30
2017-06-08T16:06:42.650Z,22.00
2017-06-08T16:09:10.308Z,22.20
2017-06-08T16:11:37.870Z,22.10
2017-06-08T16:14:05.442Z,22.10
2017-06-08T16:16:32.971Z,22.10
2017-06-08T16:19:00.566Z,22.10
2017-06-08T16:21:28.119Z,22.20
2017-06-08T16:23:55.675Z,22.20
2017-06-08T16:26:23.241Z,22.40
2017-06-08T16:28:50.806Z,22.20
2017-06-08T16:31:18.355Z,22.60
2017-06-08T16:33:46.270Z,22.50
2017-06-08T16:36:14.581Z,22.60
2017-06-08T16:38:42.174Z,22.60
2017-06-08T16:41:09.746Z,22.40
2017-06-08T16:43:37.282Z,22.20
2017-06-08T16:46:04.818Z,22.20
2017-06-08T16:48:32.414Z,22.20
2017-06-08T16:50:59.978Z,22.10
2017-06-08T16:53:27.538Z,22.00
2017-06-08T16:55:55.070Z,22.00
2017-06-08T16:58:22.603Z,22.00
2017-06-08T17:00:50.944Z,22.10
2017-06-08T17:03:18.479Z,22.10
2017-06-08T17:05:46.101Z,22.00
2017-06-08T17:08:14.435Z,21.90
2017-06-08T17:10:41.998Z,21.90
2017-06-08T17:13:09.560Z,21.90
2017-06-08T17:15:37.118Z,22.00
2017-06-08T17:18:04.678Z,22.00
2017-06-08T17:20:32.235Z,21.90
2017-06-08T17:22:59.766Z,21.80
2017-06-08T17:25:27.300Z,21.70
2017-06-08T17:27:54.926Z,21.70
2017-06-08T17:30:22.478Z,21.60
2017-06-08T17:32:50.010Z,21.60
2017-06-08T17:35:17.578Z,21.70
2017-06-08T17:37:45.163Z,21.60
2017-06-08T17:40:12.703Z,21.70
2017-06-08T17:42:40.292Z,21.50
2017-06-08T17:45:07.826Z,21.50
2017-06-08T17:47:35.358Z,21.40
2017-06-08T17:50:03.654Z,21.40
2017-06-08T17:52:31.201Z,21.40
2017-06-08T17:54:59.526Z,21.30
2017-06-08T17:57:27.062Z,21.30
2017-06-08T17:59:54.602Z,21.40
2017-06-08T18:02:23.119Z,21.20
2017-06-08T18:04:50.658Z,21.20
2017-06-08T18:07:18.187Z,21.20
2017-06-08T18:09:45.814Z,21.10
2017-06-08T18:12:13.391Z,21.10
2017-06-08T18:14:41.033Z,21.00
2017-06-08T18:17:08.598Z,20.90
2017-06-08T18:19:36.156Z,20.80
2017-06-08T18:22:03.686Z,20.80
2017-06-08T18:24:31.245Z,20.80
2017-06-08T18:26:58.836Z,20.70
2017-06-08T18:29:26.403Z,20.60
2017-06-08T18:31:54.054Z,20.60
2017-06-08T18:34:21.727Z,20.50
2017-06-08T18:36:49.259Z,20.40
2017-06-08T18:39:16.854Z,20.40
2017-06-08T18:41:44.409Z,20.40
2017-06-08T18:44:11.933Z,20.30
2017-06-08T18:46:39.467Z,20.30
2017-06-08T18:49:07.810Z,20.10
2017-06-08T18:51:35.388Z,20.10
2017-06-08T18:54:02.935Z,20.20
2017-06-08T18:56:30.598Z,20.20
2017-06-08T18:58:58.150Z,20.20
2017-06-08T19:01:25.674Z,20.20
2017-06-08T19:03:53.991Z,20.20
2017-06-08T19:06:21.644Z,20.10
2017-06-08T19:08:49.215Z,20.10
2017-06-08T19:11:16.771Z,20.00
2017-06-08T19:13:44.303Z,20.00
2017-06-08T19:16:11.898Z,20.00
2017-06-08T19:18:39.427Z,20.00
2017-06-08T19:21:06.957Z,19.90
2017-06-08T19:23:35.702Z,19.90
2017-06-08T19:26:03.230Z,19.90
2017-06-08T19:28:30.834Z,19.80
2017-06-08T19:30:58.481Z,19.80
2017-06-08T19:33:26.018Z,19.70
2017-06-08T19:35:53.554Z,19.70
2017-06-08T19:38:21.900Z,19.60
2017-06-08T19:40:49.461Z,19.60
2017-06-08T19:43:17.006Z,19.60
2017-06-08T19:45:44.538Z,19.60
2017-06-08T19:48:12.163Z,19.50
2017-06-08T19:50:39.733Z,19.50
2017-06-08T19:53:07.359Z,19.40
2017-06-08T19:55:34.902Z,19.40
2017-06-08T19:58:02.483Z,19.20
2017-06-08T20:00:30.038Z,19.20
2017-06-08T20:02:57.590Z,19.00
2017-06-08T20:05:25.174Z,19.10
2017-06-08T20:07:52.703Z,19.00
2017-06-08T20:10:20.243Z,18.90
2017-06-08T20:12:48.666Z,18.80
2017-06-08T20:15:16.198Z,18.80
2017-06-08T20:17:43.782Z,18.80
2017-06-08T20:20:11.360Z,18.70
2017-06-08T20:22:38.907Z,18.60
2017-06-08T20:25:06.471Z,18.60
2017-06-08T20:27:34.022Z,18.60
2017-06-08T20:30:01.574Z,18.60
2017-06-08T20:32:29.128Z,18.50
2017-06-08T20:34:56.661Z,18.50
2017-06-08T20:37:24.960Z,18.60
2017-06-08T20:39:52.522Z,18.50
2017-06-08T20:42:20.068Z,18.50
2017-06-08T20:44:48.398Z,18.50
2017-06-08T20:47:15.925Z,18.50
2017-06-08T20:49:43.512Z,18.50
2017-06-08T20:52:11.079Z,18.60
2017-06-08T20:54:38.634Z,18.60
2017-06-08T20:57:06.168Z,18.60
2017-06-08T20:59:33.718Z,18.50
2017-06-08T21:02:01.313Z,18.50
2017-06-08T21:04:28.842Z,18.60
2017-06-08T21:06:56.442Z,18.50
2017-06-08T21:09:23.994Z,18.50
2017-06-08T21:11:51.566Z,18.50
2017-06-08T21:14:19.125Z,18.40
2017-06-08T21:16:46.654Z,18.30
2017-06-08T21:19:14.250Z,18.30
2017-06-08T21:21:41.807Z,18.20
2017-06-08T21:24:09.470Z,18.20
2017-06-08T21:26:37.013Z,18.20
2017-06-08T21:29:04.598Z,18.20
2017-06-08T21:31:32.247Z,18.20
2017-06-08T21:33:59.906Z,18.10
2017-06-08T21:36:27.481Z,18.20
2017-06-08T21:38:55.030Z,18.10
2017-06-08T21:41:22.593Z,18.00
2017-06-08T21:43:50.125Z,18.00
2017-06-08T21:46:17.714Z,17.90
2017-06-08T21:48:45.280Z,17.80
2017-06-08T21:51:12.927Z,17.80
2017-06-08T21:53:40.503Z,17.80
2017-06-08T21:56:08.137Z,17.80
2017-06-08T21:58:35.727Z,17.70
2017-06-08T22:01:03.290Z,17.70
2017-06-08T22:03:30.842Z,17.70
2017-06-08T22:05:58.403Z,17.70
2017-06-08T22:08:25.962Z,17.50
2017-06-08T22:10:53.497Z,17.50
2017-06-08T22:13:21.036Z,17.60
2017-06-08T22:15:49.354Z,17.40
2017-06-08T22:18:16.911Z,17.40
2017-06-08T22:20:44.447Z,17.50
2017-06-08T22:23:12.013Z,17.40
2017-06-08T22:25:39.610Z,17.50
2017-06-08T22:28:07.278Z,17.50
2017-06-08T22:30:34.838Z,17.50
2017-06-08T22:33:02.435Z,17.50
2017-06-08T22:35:30.783Z,17.40
2017-06-08T22:37:58.338Z,17.40
2017-06-08T22:40:25.899Z,17.40
2017-06-08T22:42:53.426Z,17.40
2017-06-08T22:45:21.019Z,17.40
2017-06-08T22:47:48.574Z,17.30
2017-06-08T22:50:16.146Z,17.30
2017-06-08T22:52:43.697Z,17.20
2017-06-08T22:55:11.258Z,17.30
2017-06-08T22:57:38.866Z,17.30
2017-06-08T23:00:07.172Z,17.20
2017-06-08T23:02:34.762Z,17.20
2017-06-08T23:05:02.291Z,17.20
2017-06-08T23:07:29.871Z,17.10
2017-06-08T23:09:57.406Z,17.10
2017-06-08T23:12:25.012Z,17.10
2017-06-08T23:14:52.559Z,17.00
2017-06-08T23:17:20.217Z,16.90
2017-06-08T23:19:47.789Z,16.90
2017-06-08T23:22:15.359Z,16.90
2017-06-08T23:24:42.920Z,16.90
2017-06-08T23:27:10.455Z,16.90
2017-06-08T23:29:38.030Z,16.90
2017-06-08T23:32:05.608Z,17.00
2017-06-08T23:34:33.998Z,16.90
2017-06-08T23:37:01.533Z,16.80
2017-06-08T23:39:29.103Z,16.90
2017-06-08T23:41:56.700Z,16.80
2017-06-08T23:44:25.038Z,16.60
2017-06-08T23:46:52.601Z,16.60
2017-06-08T23:49:20.170Z,16.60
2017-06-08T23:51:47.723Z,16.70
2017-06-08T23:54:15.282Z,16.70
2017-06-08T23:56:42.840Z,16.60
2017-06-08T23:59:10.373Z,16.60
